Woodsetter North, FL

11:02 PM EST on February 27, 2017 (GMT -0500)
Crystal Lake | | Change Station

Elev 14 ft 26.29 °N, 80.14 °W | Updated 22 seconds ago

Partly Cloudy
Partly Cloudy
77.7 °F
Feels Like 80 °F
N
5.6
Wind Variable Wind from SE
Gusts 7.4 mph

Today
High -- | Low -- °F
--% Chance of Precip.
Yesterday
High -- | Low -- °F
Precip. -- in
Pressure 30.26 in
Visibility 7.0 miles
Clouds Few 1700 ft
Heat Index 80 °F
Dew Point 74 °F
Humidity 87%
Rainfall 0.00 in
Snow Depth Not available.
6:45 AM 6:21 PM
Waxing Crescent, 3% visible
METAR KPMP 280353Z AUTO 12011KT 7SM FEW017 25/22 A3025 RMK AO2 SLP245 T02500217
Pressure 30.26 in
Visibility 7.0 miles
Clouds Few 1700 ft
Heat Index 80 °F
Dew Point 74 °F
Humidity 87%
Rainfall 0.00 in
Snow Depth Not available.
6:45 AM 6:21 PM
Waxing Crescent, 3% visible
METAR KPMP 280353Z AUTO 12011KT 7SM FEW017 25/22 A3025 RMK AO2 SLP245 T02500217

Get Your Daily Forecast Email!

Thanks for signing up!

Be on the lookout for a verification email in your inbox.

You'll start receiving the daily forecast at 8 AM.

×

10-Day Weather Forecast

Almanac

Astronomy

Feb. 27, 2017 Rise Set
Actual Time
Civil Twilight
Nautical Twilight
Astronomical Twilight
Moon
Length of Visible Light
Length of Day
Tomorrow will be .
, % of the Moon is Illuminated

Today's Extremes

State Highs State Lows

Community

WunderPhotos

Upload Photos

1,962,540 photos uploaded!

WunderBlog® & News

Nearby

Air Quality

  Air Quality AQ Index Pollutant
Not available.

Snow Depth

Station Depth Elevation

Earthquake Activity

City Distance Mag. Time & Date
Minimum magnitude displayed is 2.5.

Coastal Water Temperatures

Place Temperature

Stations

Nearby Weather Stations

Station Location Temp. Windchill Dew Point Humidity Wind Precip. Elev Updated Type
                   

Watches & Warnings

There are currently no watches in effect.